Time;durP1;ratioP1;P1;durP2;ratioP2;P2;SDS_P1;SDS_P2;PMS_P1;PMS_P2;Temp;Humidity;BMP_temperature;BMP_pressure;BME280_temperature;BME280_humidity;BME280_pressure;Samples;Min_cycle;Max_cycle;Signal;HPM_P1;HPM_P2
2023/12/04 00:00:43;;;;;;;5.13;3.58;;;;;;;16.37;44.61;101094.38;20766696;28;20071;-60
2023/12/04 00:10:45;;;;;;;6.60;4.82;;;;;;;16.22;46.03;101069.56;20791706;28;20520;-60
2023/12/04 00:20:47;;;;;;;6.03;4.40;;;;;;;16.24;47.34;101063.13;20773046;28;20054;-59
2023/12/04 00:30:48;;;;;;;4.65;3.60;;;;;;;16.21;47.74;101032.94;20767311;28;20421;-59
2023/12/04 00:40:50;;;;;;;5.35;4.35;;;;;;;16.16;47.91;101043.22;20830819;28;20060;-59
2023/12/04 00:50:52;;;;;;;4.35;3.45;;;;;;;16.12;47.83;101036.38;20864622;28;20052;-59
2023/12/04 01:00:54;;;;;;;4.70;3.50;;;;;;;16.08;47.67;101017.81;20797370;28;20081;-59
2023/12/04 01:10:55;;;;;;;4.22;3.25;;;;;;;16.07;47.83;101013.41;20784635;28;20054;-60
2023/12/04 01:20:57;;;;;;;3.22;2.88;;;;;;;16.07;47.53;101002.69;20794423;28;20045;-60
2023/12/04 01:30:59;;;;;;;4.70;3.30;;;;;;;16.06;47.45;100992.03;20788262;28;20048;-62
2023/12/04 01:41:01;;;;;;;3.17;2.85;;;;;;;16.06;47.28;100981.31;20830885;28;20538;-59
2023/12/04 01:51:07;;;;;;;3.38;2.63;;;;;;;16.04;47.01;100973.38;20783099;28;20048;-59
2023/12/04 02:01:09;;;;;;;2.90;2.60;;;;;;;16.07;46.53;100973.13;20761485;28;20054;-59
2023/12/04 02:11:11;;;;;;;3.08;2.67;;;;;;;16.10;46.54;100961.28;20775326;28;20111;-59
2023/12/04 02:21:13;;;;;;;3.22;2.88;;;;;;;16.08;46.11;100956.03;20779277;28;20131;-59
2023/12/04 02:31:15;;;;;;;3.00;2.53;;;;;;;16.09;46.16;100941.63;20787168;28;20142;-59
2023/12/04 02:41:17;;;;;;;2.70;2.45;;;;;;;16.09;46.08;100936.28;20807257;28;20053;-59
2023/12/04 02:51:19;;;;;;;3.53;3.05;;;;;;;16.07;45.94;100924.78;20791997;28;20051;-59
2023/12/04 03:01:21;;;;;;;3.03;2.50;;;;;;;16.06;45.97;100904.28;20788669;28;20053;-59
2023/12/04 03:11:22;;;;;;;2.55;2.35;;;;;;;16.08;45.69;100890.72;20779000;28;20049;-59
2023/12/04 03:21:24;;;;;;;2.35;2.15;;;;;;;16.08;45.76;100879.97;20770516;28;20056;-59
2023/12/04 03:31:28;;;;;;;2.63;2.42;;;;;;;16.04;45.86;100867.78;20773468;28;20057;-59
2023/12/04 03:41:29;;;;;;;2.78;2.38;;;;;;;16.03;45.78;100850.84;20793884;28;20045;-60
2023/12/04 03:51:31;;;;;;;2.70;2.30;;;;;;;16.11;45.53;100841.28;20776253;28;20056;-59
2023/12/04 04:01:33;;;;;;;2.63;2.30;;;;;;;16.03;45.26;100821.28;20770372;28;20161;-59
2023/12/04 04:11:35;;;;;;;2.45;2.10;;;;;;;16.11;45.08;100835.91;20766617;28;20057;-59
2023/12/04 04:21:40;;;;;;;2.88;2.50;;;;;;;16.12;44.91;100822.34;20769839;28;20053;-60
2023/12/04 04:31:42;;;;;;;;;;;;;;;16.14;45.14;100809.69;20777345;28;20107;-59
2023/12/04 04:41:44;;;;;;;2.75;2.50;;;;;;;16.12;44.98;100794.66;20806185;28;19928;-59
2023/12/04 04:51:46;;;;;;;2.58;2.30;;;;;;;16.14;44.88;100787.31;20784387;28;20139;-59
2023/12/04 05:01:48;;;;;;;2.72;2.15;;;;;;;16.13;44.69;100770.38;20767045;28;20049;-59
2023/12/04 05:11:49;;;;;;;2.85;2.20;;;;;;;16.08;44.76;100770.75;20725543;28;20045;-60
2023/12/04 05:21:51;;;;;;;2.50;2.10;;;;;;;16.08;44.76;100773.44;20729213;28;20519;-59
2023/12/04 05:31:53;;;;;;;2.28;2.00;;;;;;;16.04;44.53;100761.25;20797211;28;20107;-60
2023/12/04 05:41:55;;;;;;;2.60;2.28;;;;;;;16.02;44.79;100752.47;20825656;28;20752;-59
2023/12/04 05:51:56;;;;;;;2.20;2.00;;;;;;;15.97;44.64;100751.13;20822098;28;20460;-59
2023/12/04 06:01:59;;;;;;;2.35;2.10;;;;;;;15.95;44.56;100735.16;20776094;28;20053;-59
2023/12/04 06:12:07;;;;;;;2.13;1.92;;;;;;;15.92;44.51;100736.25;20777542;28;20045;-62
2023/12/04 06:22:09;;;;;;;2.17;1.90;;;;;;;15.91;44.80;100728.34;20777673;28;20135;-60
2023/12/04 06:32:12;;;;;;;2.10;1.70;;;;;;;15.87;44.70;100713.41;20755401;28;20057;-60
2023/12/04 06:42:14;;;;;;;2.80;2.08;;;;;;;15.87;44.61;100705.34;20790466;28;20057;-60
2023/12/04 06:52:15;;;;;;;2.40;2.20;;;;;;;15.85;44.65;100696.59;20791979;28;20056;-59
2023/12/04 07:02:17;;;;;;;2.05;1.85;;;;;;;15.81;44.51;100696.84;20781073;28;20139;-60
2023/12/04 07:12:20;;;;;;;2.22;2.00;;;;;;;15.80;44.59;100679.03;20754494;28;20111;-60
2023/12/04 07:22:21;;;;;;;3.55;2.35;;;;;;;15.84;44.55;100654.63;20792025;28;20053;-60
2023/12/04 07:32:23;;;;;;;2.67;2.40;;;;;;;15.80;44.39;100652.19;20791525;28;20041;-60
2023/12/04 07:42:25;;;;;;;2.78;2.20;;;;;;;15.78;44.45;100656.00;20782335;28;20053;-60
2023/12/04 07:52:27;;;;;;;3.00;2.58;;;;;;;15.77;44.41;100652.44;20789929;28;20041;-59
2023/12/04 08:02:29;;;;;;;2.55;2.22;;;;;;;15.76;44.19;100640.00;20789325;28;20045;-60
2023/12/04 08:12:31;;;;;;;2.47;2.08;;;;;;;15.75;44.13;100630.25;20789487;28;20049;-60
2023/12/04 08:22:33;;;;;;;2.50;2.28;;;;;;;15.77;44.04;100630.13;20788316;28;20127;-59
2023/12/04 08:32:35;;;;;;;2.58;2.08;;;;;;;15.75;43.76;100613.31;20788129;28;20058;-60
2023/12/04 08:42:37;;;;;;;2.80;2.20;;;;;;;15.72;43.83;100614.41;20787946;28;20405;-60
2023/12/04 08:52:41;;;;;;;2.70;2.30;;;;;;;15.78;43.48;100600.47;20706127;28;20054;-60
2023/12/04 09:02:43;;;;;;;2.03;1.80;;;;;;;15.89;43.10;100602.28;20721686;28;20131;-60
2023/12/04 09:12:54;;;;;;;2.63;2.20;;;;;;;15.93;43.33;100592.97;20721397;28;20450;-60
2023/12/04 09:22:56;;;;;;;2.13;1.77;;;;;;;15.94;42.89;100589.31;20719654;28;20054;-59
2023/12/04 09:33:09;;;;;;;2.10;1.90;;;;;;;15.99;42.83;100585.38;20719335;28;20498;-60
2023/12/04 09:43:11;;;;;;;2.75;1.95;;;;;;;15.99;42.79;100575.50;20724328;28;20549;-60
2023/12/04 09:53:13;;;;;;;3.03;2.58;;;;;;;16.01;42.62;100573.53;20781694;28;20242;-60
2023/12/04 10:03:15;;;;;;;1.67;1.58;;;;;;;16.05;42.49;100574.97;20780829;28;20049;-60
2023/12/04 10:13:17;;;;;;;2.53;2.05;;;;;;;16.04;42.64;100575.97;20850364;28;20041;-60
2023/12/04 10:23:44;;;;;;;1.70;1.60;;;;;;;15.96;42.84;100540.88;20877200;28;20128;-60
2023/12/04 10:33:49;;;;;;;2.60;1.65;;;;;;;16.13;42.59;100534.03;20880038;28;20056;-59
2023/12/04 10:43:51;;;;;;;2.08;1.92;;;;;;;16.29;42.14;100513.88;20837798;28;20049;-60
2023/12/04 10:54:05;;;;;;;2.58;2.20;;;;;;;16.44;41.59;100501.78;20795909;28;20508;-60
2023/12/04 11:04:12;;;;;;;1.88;1.48;;;;;;;16.50;41.42;100484.25;20794978;28;20147;-60
2023/12/04 11:14:18;;;;;;;2.10;1.73;;;;;;;16.55;41.22;100476.63;20792597;28;20061;-60
2023/12/04 12:55:51;;;;;;;2.05;1.73;;;;;;;16.64;41.70;100373.66;20750800;28;20459;-61
2023/12/04 13:05:53;;;;;;;2.05;1.67;;;;;;;16.75;41.84;100353.88;20776150;28;20183;-60
2023/12/04 13:15:55;;;;;;;1.77;1.40;;;;;;;16.71;42.14;100309.47;20764237;28;20458;-60
2023/12/04 13:25:58;;;;;;;3.05;2.00;;;;;;;16.90;42.40;100323.84;20764079;28;20045;-59
2023/12/04 13:36:00;;;;;;;1.63;1.50;;;;;;;17.01;42.80;100299.50;20760279;28;20060;-59
2023/12/04 13:46:09;;;;;;;2.20;1.52;;;;;;;17.04;43.29;100298.38;20768475;28;20046;-59
2023/12/04 14:06:25;;;;;;;1.70;1.58;;;;;;;17.22;43.88;100264.34;20768502;28;20151;-61
2023/12/04 14:16:28;;;;;;;1.75;1.55;;;;;;;17.35;43.97;100271.25;20761425;28;20405;-60
2023/12/04 14:26:30;;;;;;;2.50;1.60;;;;;;;17.42;43.85;100245.44;20739579;28;20452;-60
2023/12/04 14:36:32;;;;;;;2.08;1.10;;;;;;;17.44;43.63;100242.59;20753557;28;20052;-61
2023/12/04 14:46:33;;;;;;;1.90;1.50;;;;;;;17.44;43.60;100232.69;20759025;28;20053;-61
2023/12/04 15:17:17;;;;;;;1.88;1.40;;;;;;;17.51;43.81;100206.88;20779357;28;20521;-61
2023/12/04 15:27:19;;;;;;;1.70;1.45;;;;;;;17.56;43.88;100202.88;20782620;28;20045;-60
2023/12/04 15:37:21;;;;;;;1.65;1.45;;;;;;;17.60;43.49;100188.97;20782567;28;20583;-63
2023/12/04 15:47:25;;;;;;;2.53;1.20;;;;;;;17.74;43.73;100190.31;20756839;28;20293;-63
2023/12/04 15:57:27;;;;;;;1.80;1.33;;;;;;;17.70;44.00;100178.16;20755141;28;20052;-64
2023/12/04 16:07:29;;;;;;;4.25;2.00;;;;;;;17.45;50.94;100167.09;20749345;28;20052;-65
2023/12/04 16:17:30;;;;;;;2.08;1.80;;;;;;;17.32;50.04;100172.00;20755949;28;20081;-61
2023/12/04 16:27:32;;;;;;;1.80;1.40;;;;;;;17.58;51.50;100168.56;20764102;28;20402;-63
2023/12/04 16:37:34;;;;;;;1.40;1.30;;;;;;;17.67;51.92;100167.66;20762540;28;20049;-63
2023/12/04 16:47:36;;;;;;;2.33;1.63;;;;;;;17.68;50.89;100161.31;20759154;28;20403;-62
2023/12/04 16:57:38;;;;;;;2.33;1.48;;;;;;;17.68;50.38;100150.53;20756610;28;20045;-63
2023/12/04 17:07:40;;;;;;;1.58;1.45;;;;;;;17.62;49.70;100145.75;20747876;28;20041;-63
2023/12/04 17:17:43;;;;;;;2.22;1.58;;;;;;;17.56;49.34;100149.03;20774072;28;20489;-63
2023/12/04 17:27:45;;;;;;;3.00;1.50;;;;;;;17.60;48.71;100134.28;20785542;28;20188;-62
2023/12/04 17:37:47;;;;;;;1.52;1.42;;;;;;;17.57;48.33;100142.66;20768614;28;20413;-60
2023/12/04 17:47:49;;;;;;;2.72;1.60;;;;;;;17.50;48.39;100124.44;20772354;28;20110;-60
2023/12/04 17:57:51;;;;;;;1.80;1.50;;;;;;;17.51;48.07;100125.31;20773671;28;20527;-63
2023/12/04 18:07:53;;;;;;;2.08;1.85;;;;;;;17.54;47.94;100119.63;20752954;28;20084;-64
2023/12/04 18:17:55;;;;;;;2.20;1.70;;;;;;;17.54;47.71;100120.44;20735935;28;20053;-63
2023/12/04 18:27:58;;;;;;;2.80;1.70;;;;;;;17.50;47.56;100097.53;20733706;28;20520;-62
2023/12/04 18:38:07;;;;;;;2.80;1.90;;;;;;;17.43;47.68;100088.38;20696221;28;20374;-63
2023/12/04 18:48:11;;;;;;;1.75;1.50;;;;;;;17.35;47.19;100069.47;20740132;28;20053;-63
2023/12/04 18:58:13;;;;;;;1.80;1.60;;;;;;;17.42;47.06;100078.63;20766019;28;20136;-62
2023/12/04 19:08:16;;;;;;;1.65;1.50;;;;;;;17.40;47.06;100064.47;20764587;28;20048;-61
2023/12/04 19:18:18;;;;;;;3.40;1.98;;;;;;;17.11;47.32;100022.50;20768385;28;20064;-62
2023/12/04 19:28:20;;;;;;;2.65;1.80;;;;;;;17.37;47.12;100056.72;20755326;28;20130;-62
2023/12/04 19:38:21;;;;;;;3.13;1.77;;;;;;;17.37;47.09;100048.66;20745165;28;20493;-61
2023/12/04 19:48:23;;;;;;;2.90;1.70;;;;;;;17.35;47.15;100039.88;20771457;28;20497;-64
2023/12/04 19:58:25;;;;;;;1.80;1.67;;;;;;;17.36;47.10;100031.63;20773383;28;20049;-62
2023/12/04 20:08:27;;;;;;;2.92;1.85;;;;;;;17.38;46.84;100023.44;20769422;28;20052;-63
2023/12/04 20:18:29;;;;;;;3.83;1.88;;;;;;;17.30;47.20;100013.44;20769991;28;20543;-62
2023/12/04 20:28:31;;;;;;;4.18;2.42;;;;;;;17.21;48.68;100011.66;20749687;28;20061;-62
2023/12/04 20:38:34;;;;;;;3.10;2.10;;;;;;;16.97;49.15;99961.97;20744638;28;20142;-62
2023/12/04 20:48:36;;;;;;;2.55;1.90;;;;;;;17.19;49.72;100003.75;20765574;28;20054;-62
2023/12/04 20:58:38;;;;;;;2.38;1.83;;;;;;;17.14;49.88;99995.28;20824888;28;20194;-62
2023/12/04 21:08:41;;;;;;;3.13;1.80;;;;;;;17.08;49.59;99987.84;20825610;28;20057;-62
2023/12/04 21:18:44;;;;;;;2.00;1.70;;;;;;;16.93;49.36;99974.91;20816115;28;20060;-62
2023/12/04 21:28:46;;;;;;;1.73;1.52;;;;;;;16.97;49.05;99988.88;20816262;28;20060;-62
2023/12/04 21:38:48;;;;;;;2.30;2.00;;;;;;;16.90;48.79;99983.28;20821915;28;20076;-63
2023/12/04 21:48:50;;;;;;;2.17;1.80;;;;;;;16.87;48.46;99970.13;20827377;28;20060;-63
2023/12/04 21:58:52;;;;;;;2.15;1.75;;;;;;;16.82;48.05;99959.00;20815835;28;20053;-63
2023/12/04 22:08:54;;;;;;;2.05;1.75;;;;;;;16.80;47.77;99950.25;20827237;28;20056;-63
2023/12/04 22:18:56;;;;;;;1.60;1.50;;;;;;;16.68;47.52;99931.63;20759468;28;20041;-63
2023/12/04 22:28:57;;;;;;;2.00;1.60;;;;;;;16.72;47.46;99948.31;20781771;28;20123;-63
2023/12/04 22:38:59;;;;;;;2.28;2.05;;;;;;;16.71;47.18;99937.69;20794762;28;20068;-63
2023/12/04 22:49:01;;;;;;;1.80;1.70;;;;;;;16.68;47.10;99938.84;20768655;28;20052;-62
2023/12/04 22:59:03;;;;;;;1.45;1.35;;;;;;;16.62;47.10;99932.25;20817148;28;20148;-62
2023/12/04 23:09:05;;;;;;;1.45;1.35;;;;;;;16.61;46.87;99938.59;20799253;28;20077;-62
2023/12/04 23:19:07;;;;;;;1.50;1.40;;;;;;;16.58;46.62;99938.91;20767865;28;20088;-62
2023/12/04 23:29:09;;;;;;;1.30;1.20;;;;;;;16.49;46.57;99926.41;20766786;28;20056;-62
2023/12/04 23:39:11;;;;;;;1.25;1.00;;;;;;;16.48;46.54;99909.41;20777357;28;20435;-62
2023/12/04 23:49:13;;;;;;;1.70;1.60;;;;;;;16.51;46.27;99913.66;20774311;28;20140;-62
2023/12/04 23:59:15;;;;;;;1.60;1.50;;;;;;;16.47;46.31;99901.53;20792119;28;20132;-63
